createdAt,value
2018-06-04T00:01:54.744Z,15.50
2018-06-04T00:05:05.387Z,15.40
2018-06-04T00:08:16.166Z,15.40
2018-06-04T00:11:26.577Z,15.40
2018-06-04T00:14:36.552Z,15.40
2018-06-04T00:17:46.631Z,15.30
2018-06-04T00:20:56.864Z,15.50
2018-06-04T00:24:07.338Z,15.50
2018-06-04T00:27:18.462Z,15.40
2018-06-04T00:30:28.813Z,15.40
2018-06-04T00:33:39.122Z,15.30
2018-06-04T00:36:49.235Z,15.40
2018-06-04T00:39:59.743Z,15.40
2018-06-04T00:43:10.408Z,15.50
2018-06-04T00:46:21.234Z,15.50
2018-06-04T00:49:31.407Z,15.30
2018-06-04T00:52:41.827Z,15.40
2018-06-04T00:56:03.241Z,15.40
2018-06-04T00:59:13.539Z,15.60
2018-06-04T01:02:23.381Z,15.40
2018-06-04T01:05:33.648Z,15.30
2018-06-04T01:08:44.427Z,15.30
2018-06-04T01:11:54.823Z,15.30
2018-06-04T01:15:05.486Z,15.30
2018-06-04T01:18:15.436Z,15.20
2018-06-04T01:21:25.695Z,15.20
2018-06-04T01:24:35.467Z,15.30
2018-06-04T01:27:45.603Z,15.20
2018-06-04T01:30:55.998Z,15.20
2018-06-04T01:34:06.507Z,15.20
2018-06-04T01:37:16.694Z,15.20
2018-06-04T01:40:27.102Z,15.00
2018-06-04T01:43:37.501Z,14.90
2018-06-04T01:46:47.650Z,15.00
2018-06-04T01:49:58.247Z,15.00
2018-06-04T01:53:08.970Z,15.00
2018-06-04T01:56:19.578Z,15.00
2018-06-04T01:59:30.419Z,15.00
2018-06-04T02:02:40.959Z,15.10
2018-06-04T02:05:50.857Z,15.00
2018-06-04T02:09:00.843Z,14.90
2018-06-04T02:12:11.308Z,14.90
2018-06-04T02:15:21.882Z,14.90
2018-06-04T02:18:32.398Z,14.90
2018-06-04T02:21:42.560Z,14.80
2018-06-04T02:24:52.934Z,14.80
2018-06-04T02:28:03.263Z,14.80
2018-06-04T02:31:13.155Z,14.80
2018-06-04T02:34:23.887Z,14.90
2018-06-04T02:37:33.715Z,14.80
2018-06-04T02:40:44.073Z,14.80
2018-06-04T02:43:54.694Z,14.90
2018-06-04T02:47:05.895Z,14.70
2018-06-04T02:50:16.597Z,14.70
2018-06-04T02:53:26.654Z,14.80
2018-06-04T02:56:36.563Z,14.80
2018-06-04T02:59:46.533Z,14.90
2018-06-04T03:02:56.779Z,14.90
2018-06-04T03:06:07.871Z,14.90
2018-06-04T03:09:18.398Z,14.90
2018-06-04T03:12:28.379Z,14.90
2018-06-04T03:15:38.833Z,14.80
2018-06-04T03:18:48.622Z,14.70
2018-06-04T03:21:58.562Z,14.80
2018-06-04T03:25:09.331Z,14.70
2018-06-04T03:28:19.798Z,14.80
2018-06-04T03:31:29.934Z,14.80
2018-06-04T03:34:40.901Z,14.70
2018-06-04T03:37:50.864Z,14.70
2018-06-04T03:41:02.275Z,14.70
2018-06-04T03:44:13.892Z,14.60
2018-06-04T03:47:26.305Z,14.70
2018-06-04T03:50:39.217Z,14.60
2018-06-04T03:53:50.025Z,14.70
2018-06-04T03:57:01.694Z,14.70
2018-06-04T04:00:13.083Z,14.60
2018-06-04T04:03:24.821Z,14.50
2018-06-04T04:06:36.770Z,14.60
2018-06-04T04:09:48.389Z,14.60
2018-06-04T04:13:00.462Z,14.60
2018-06-04T04:16:13.016Z,14.70
2018-06-04T04:19:23.976Z,14.60
2018-06-04T04:22:35.663Z,14.80
2018-06-04T04:25:46.601Z,14.80
2018-06-04T04:28:57.915Z,14.80
2018-06-04T04:32:08.972Z,14.90
2018-06-04T04:35:21.446Z,15.00
2018-06-04T04:38:31.951Z,15.00
2018-06-04T04:41:42.114Z,15.10
2018-06-04T04:44:52.442Z,15.10
2018-06-04T04:48:02.683Z,15.20
2018-06-04T04:54:24.322Z,15.40
2018-06-04T04:57:35.395Z,15.50
2018-06-04T05:00:45.832Z,15.60
2018-06-04T05:03:55.965Z,15.70
2018-06-04T05:07:05.999Z,15.80
2018-06-04T05:10:17.438Z,15.90
2018-06-04T05:13:27.459Z,15.90
2018-06-04T05:16:37.674Z,16.10
2018-06-04T05:19:47.726Z,16.20
2018-06-04T05:22:59.122Z,16.30
2018-06-04T05:26:09.734Z,16.50
2018-06-04T05:29:20.046Z,16.60
2018-06-04T05:32:30.334Z,16.60
2018-06-04T05:35:41.171Z,16.70
2018-06-04T05:38:51.806Z,16.90
2018-06-04T05:42:02.090Z,16.90
2018-06-04T05:45:12.462Z,17.10
2018-06-04T05:48:22.654Z,17.30
2018-06-04T05:51:32.739Z,17.40
2018-06-04T05:54:42.806Z,17.50
2018-06-04T05:57:53.405Z,17.50
2018-06-04T06:01:03.337Z,17.60
2018-06-04T06:04:13.327Z,17.80
2018-06-04T06:07:23.204Z,17.80
2018-06-04T06:10:33.234Z,17.90
2018-06-04T06:13:43.894Z,18.00
2018-06-04T06:16:54.514Z,18.20
2018-06-04T06:20:06.015Z,18.30
2018-06-04T06:23:16.098Z,18.40
2018-06-04T06:26:26.383Z,18.50
2018-06-04T06:29:36.700Z,18.60
2018-06-04T06:32:46.744Z,18.70
2018-06-04T06:35:57.591Z,18.90
2018-06-04T06:39:09.470Z,19.10
2018-06-04T06:42:20.103Z,19.30
2018-06-04T06:45:30.046Z,19.40
2018-06-04T06:48:40.835Z,19.50
2018-06-04T06:51:50.888Z,19.70
2018-06-04T06:55:01.298Z,19.90
2018-06-04T06:58:11.330Z,19.90
2018-06-04T07:01:21.706Z,20.20
2018-06-04T07:04:32.092Z,20.50
2018-06-04T07:07:41.942Z,20.60
2018-06-04T07:10:52.438Z,20.80
2018-06-04T07:14:02.809Z,21.00
2018-06-04T07:17:12.741Z,21.10
2018-06-04T07:20:23.178Z,21.20
2018-06-04T07:23:33.268Z,21.20
2018-06-04T07:26:43.258Z,21.30
2018-06-04T07:29:53.974Z,21.40
2018-06-04T07:33:04.687Z,21.60
2018-06-04T07:36:15.800Z,21.70
2018-06-04T07:39:25.691Z,21.80
2018-06-04T07:42:35.918Z,21.80
2018-06-04T07:45:46.042Z,21.60
2018-06-04T07:48:56.480Z,21.90
2018-06-04T07:52:06.590Z,22.10
2018-06-04T07:55:16.459Z,22.20
2018-06-04T07:58:27.859Z,22.30
2018-06-04T08:01:38.215Z,22.40
2018-06-04T08:04:47.894Z,22.60
2018-06-04T08:07:58.829Z,22.80
2018-06-04T08:11:09.091Z,22.90
2018-06-04T08:14:19.594Z,23.00
2018-06-04T08:17:29.670Z,22.70
2018-06-04T08:20:40.156Z,22.90
2018-06-04T08:23:50.561Z,23.10
2018-06-04T08:27:00.782Z,23.20
2018-06-04T08:30:11.054Z,23.20
2018-06-04T08:33:20.720Z,23.30
2018-06-04T08:36:30.684Z,23.60
2018-06-04T08:39:40.738Z,23.60
2018-06-04T08:42:51.014Z,23.40
2018-06-04T08:46:01.059Z,23.60
2018-06-04T08:49:10.940Z,23.70
2018-06-04T08:52:20.702Z,23.50
2018-06-04T08:55:30.792Z,23.60
2018-06-04T08:58:41.060Z,23.40
2018-06-04T09:01:50.873Z,23.40
2018-06-04T09:05:01.147Z,23.40
2018-06-04T09:08:11.403Z,23.50
2018-06-04T09:11:21.268Z,23.60
2018-06-04T09:14:31.444Z,23.50
2018-06-04T09:17:41.974Z,23.60
2018-06-04T09:20:51.707Z,23.70
2018-06-04T09:24:01.927Z,23.80
2018-06-04T09:27:12.167Z,24.10
2018-06-04T09:30:22.338Z,24.30
2018-06-04T09:33:32.398Z,24.20
2018-06-04T09:36:43.514Z,24.40
2018-06-04T09:39:53.765Z,24.60
2018-06-04T09:43:04.166Z,24.70
2018-06-04T09:46:14.383Z,25.00
2018-06-04T09:49:24.164Z,24.80
2018-06-04T09:52:34.323Z,24.50
2018-06-04T09:55:43.929Z,24.40
2018-06-04T09:58:54.062Z,24.50
2018-06-04T10:02:03.982Z,24.90
2018-06-04T10:05:13.522Z,24.80
2018-06-04T10:08:23.683Z,25.10
2018-06-04T10:11:33.625Z,25.30
2018-06-04T10:14:43.593Z,25.30
2018-06-04T10:17:53.830Z,25.00
2018-06-04T10:21:04.120Z,25.20
2018-06-04T10:24:13.762Z,25.50
2018-06-04T10:27:23.967Z,25.60
2018-06-04T10:30:34.329Z,25.60
2018-06-04T10:33:44.169Z,25.50
2018-06-04T10:36:54.236Z,25.30
2018-06-04T10:40:05.137Z,25.10
2018-06-04T10:43:14.837Z,25.10
2018-06-04T10:46:25.166Z,25.00
2018-06-04T10:49:35.240Z,24.40
2018-06-04T10:52:45.597Z,24.50
2018-06-04T10:55:55.360Z,24.50
2018-06-04T10:59:05.325Z,24.30
2018-06-04T11:02:15.189Z,24.30
2018-06-04T11:05:25.133Z,24.40
2018-06-04T11:08:34.863Z,24.40
2018-06-04T11:11:44.846Z,24.30
2018-06-04T11:14:55.322Z,24.50
2018-06-04T11:18:05.507Z,24.70
2018-06-04T11:21:15.594Z,24.90
2018-06-04T11:24:25.887Z,25.20
2018-06-04T11:27:36.058Z,25.40
2018-06-04T11:30:46.453Z,25.60
2018-06-04T11:33:56.225Z,25.70
2018-06-04T11:37:06.404Z,26.00
2018-06-04T11:40:16.119Z,26.30
2018-06-04T11:43:26.153Z,26.20
2018-06-04T11:46:36.497Z,26.20
2018-06-04T11:49:46.681Z,26.60
2018-06-04T11:52:56.567Z,26.70
2018-06-04T11:56:06.254Z,26.80
2018-06-04T11:59:16.494Z,26.90
2018-06-04T12:02:26.582Z,26.90
2018-06-04T12:05:36.865Z,27.10
2018-06-04T12:08:47.419Z,27.10
2018-06-04T12:11:57.387Z,27.00
2018-06-04T12:15:08.338Z,27.10
2018-06-04T12:18:18.838Z,27.50
2018-06-04T12:21:28.713Z,27.60
2018-06-04T12:24:38.821Z,27.50
2018-06-04T12:27:48.801Z,27.50
2018-06-04T12:30:58.486Z,27.20
2018-06-04T12:34:08.847Z,27.40
2018-06-04T12:37:18.834Z,27.30
2018-06-04T12:40:29.093Z,27.20
2018-06-04T12:43:39.767Z,27.40
2018-06-04T12:46:50.121Z,27.60
2018-06-04T12:50:00.646Z,27.60
2018-06-04T12:53:11.074Z,27.50
2018-06-04T12:56:21.182Z,27.80
2018-06-04T12:59:31.306Z,28.10
2018-06-04T13:02:41.209Z,27.80
2018-06-04T13:05:51.318Z,27.90
2018-06-04T13:09:01.562Z,27.80
2018-06-04T13:12:11.626Z,27.90
2018-06-04T13:15:21.473Z,27.90
2018-06-04T13:18:31.451Z,27.60
2018-06-04T13:21:41.757Z,27.70
2018-06-04T13:24:51.686Z,27.50
2018-06-04T13:28:01.515Z,27.40
2018-06-04T13:31:11.631Z,27.40
2018-06-04T13:34:21.719Z,27.50
2018-06-04T13:37:31.815Z,27.40
2018-06-04T13:40:41.962Z,27.40
2018-06-04T13:43:51.831Z,27.70
2018-06-04T13:47:01.846Z,27.70
2018-06-04T13:50:12.433Z,27.80
2018-06-04T13:53:22.925Z,27.90
2018-06-04T13:56:32.633Z,28.00
2018-06-04T13:59:42.482Z,28.00
2018-06-04T14:02:52.775Z,27.90
2018-06-04T14:06:02.328Z,27.70
2018-06-04T14:09:12.257Z,27.10
2018-06-04T14:12:22.247Z,26.80
2018-06-04T14:15:32.830Z,26.80
2018-06-04T14:18:43.267Z,26.90
2018-06-04T14:21:53.310Z,27.20
2018-06-04T14:25:02.932Z,27.10
2018-06-04T14:28:13.165Z,27.00
2018-06-04T14:31:23.133Z,27.00
2018-06-04T14:34:33.199Z,26.80
2018-06-04T14:37:43.071Z,26.90
2018-06-04T14:40:52.687Z,26.70
2018-06-04T14:44:03.025Z,26.60
2018-06-04T14:47:13.071Z,26.80
2018-06-04T14:50:23.441Z,26.80
2018-06-04T14:53:33.469Z,26.40
2018-06-04T14:56:44.304Z,26.30
2018-06-04T14:59:53.975Z,26.50
2018-06-04T15:03:03.729Z,26.70
2018-06-04T15:06:13.410Z,26.80
2018-06-04T15:09:24.108Z,26.80
2018-06-04T15:12:34.370Z,26.70
2018-06-04T15:15:45.510Z,26.60
2018-06-04T15:18:55.641Z,26.60
2018-06-04T15:22:05.754Z,26.60
2018-06-04T15:25:15.436Z,26.60
2018-06-04T15:28:25.882Z,26.50
2018-06-04T15:31:35.949Z,26.50
2018-06-04T15:34:45.831Z,26.40
2018-06-04T15:37:56.711Z,26.30
2018-06-04T15:41:07.062Z,26.40
2018-06-04T15:44:18.644Z,26.60
2018-06-04T15:47:29.363Z,26.60
2018-06-04T15:50:39.692Z,26.60
2018-06-04T15:53:50.206Z,26.30
2018-06-04T15:57:00.303Z,26.50
2018-06-04T16:00:10.625Z,26.50
2018-06-04T16:03:20.731Z,26.50
2018-06-04T16:06:31.070Z,26.50
2018-06-04T16:12:51.462Z,26.10
2018-06-04T16:16:01.212Z,26.10
2018-06-04T16:19:10.786Z,26.00
2018-06-04T16:22:21.207Z,25.90
2018-06-04T16:25:31.385Z,25.80
2018-06-04T16:28:41.062Z,25.80
2018-06-04T16:31:50.655Z,25.80
2018-06-04T16:35:01.275Z,25.80
2018-06-04T16:38:11.136Z,25.90
2018-06-04T16:41:21.550Z,25.80
2018-06-04T16:44:31.355Z,25.80
2018-06-04T16:47:41.917Z,25.60
2018-06-04T16:50:51.702Z,25.40
2018-06-04T16:54:01.510Z,25.50
2018-06-04T16:57:11.531Z,25.40
2018-06-04T17:00:21.432Z,25.30
2018-06-04T17:03:31.474Z,25.20
2018-06-04T17:06:41.857Z,25.10
2018-06-04T17:09:52.059Z,25.20
2018-06-04T17:13:01.964Z,25.00
2018-06-04T17:16:12.450Z,24.90
2018-06-04T17:19:22.325Z,24.80
2018-06-04T17:22:32.783Z,24.80
2018-06-04T17:25:43.406Z,24.60
2018-06-04T17:28:53.518Z,24.70
2018-06-04T17:32:03.421Z,24.50
2018-06-04T17:35:13.271Z,24.50
2018-06-04T17:38:23.268Z,24.50
2018-06-04T17:41:33.071Z,24.40
2018-06-04T17:44:42.981Z,24.30
2018-06-04T17:47:53.392Z,24.20
2018-06-04T17:51:03.600Z,24.30
2018-06-04T17:54:13.427Z,24.10
2018-06-04T17:57:23.306Z,24.00
2018-06-04T18:00:33.023Z,23.90
2018-06-04T18:03:43.382Z,23.90
2018-06-04T18:06:53.333Z,23.90
2018-06-04T18:10:05.290Z,23.90
2018-06-04T18:13:15.972Z,23.80
2018-06-04T18:16:25.841Z,23.70
2018-06-04T18:19:35.690Z,23.70
2018-06-04T18:22:45.470Z,23.70
2018-06-04T18:25:55.334Z,23.70
2018-06-04T18:29:05.402Z,23.60
2018-06-04T18:32:15.216Z,23.60
2018-06-04T18:35:25.288Z,23.60
2018-06-04T18:38:35.117Z,23.40
2018-06-04T18:41:45.319Z,23.20
2018-06-04T18:44:55.732Z,23.00
2018-06-04T18:48:05.896Z,23.00
2018-06-04T18:51:16.854Z,22.90
2018-06-04T18:54:27.117Z,22.90
2018-06-04T18:57:38.024Z,22.80
2018-06-04T19:00:48.603Z,22.70
2018-06-04T19:03:59.118Z,22.70
2018-06-04T19:07:08.942Z,22.70
2018-06-04T19:10:19.139Z,22.60
2018-06-04T19:13:29.230Z,22.40
2018-06-04T19:16:39.286Z,22.30
2018-06-04T19:19:50.054Z,22.10
2018-06-04T19:23:00.105Z,22.10
2018-06-04T19:26:09.686Z,22.00
2018-06-04T19:29:20.000Z,21.80
2018-06-04T19:32:30.059Z,21.80
2018-06-04T19:35:40.380Z,21.70
2018-06-04T19:38:51.449Z,21.60
2018-06-04T19:42:02.046Z,21.40
2018-06-04T19:45:12.428Z,21.30
2018-06-04T19:48:22.489Z,21.20
2018-06-04T19:51:32.333Z,21.10
2018-06-04T19:54:42.525Z,21.00
2018-06-04T19:57:53.341Z,21.00
2018-06-04T20:01:03.660Z,20.90
2018-06-04T20:04:13.781Z,20.80
2018-06-04T20:07:24.006Z,20.50
2018-06-04T20:10:35.502Z,20.50
2018-06-04T20:13:45.325Z,20.50
2018-06-04T20:16:55.469Z,20.40
2018-06-04T20:20:07.955Z,20.40
2018-06-04T20:23:18.206Z,20.20
2018-06-04T20:26:29.753Z,20.20
2018-06-04T20:29:40.034Z,20.20
2018-06-04T20:36:25.019Z,19.80
2018-06-04T20:39:35.232Z,19.80
2018-06-04T20:42:45.884Z,19.70
2018-06-04T20:45:55.866Z,19.80
2018-06-04T20:49:05.754Z,19.70
2018-06-04T20:52:16.414Z,19.40
2018-06-04T20:55:26.725Z,19.50
2018-06-04T20:58:38.190Z,19.40
2018-06-04T21:01:48.482Z,19.30
2018-06-04T21:04:58.647Z,19.20
2018-06-04T21:08:09.099Z,19.10
2018-06-04T21:11:18.909Z,19.20
2018-06-04T21:14:28.786Z,19.00
2018-06-04T21:17:39.516Z,18.90
2018-06-04T21:20:49.591Z,19.00
2018-06-04T21:23:59.406Z,18.90
2018-06-04T21:27:09.577Z,18.80
2018-06-04T21:30:20.010Z,18.80
2018-06-04T21:33:29.957Z,18.80
2018-06-04T21:36:40.354Z,18.50
2018-06-04T21:39:50.982Z,18.30
2018-06-04T21:43:01.711Z,18.40
2018-06-04T21:46:12.113Z,18.00
2018-06-04T21:49:22.722Z,18.00
2018-06-04T21:52:33.081Z,17.80
2018-06-04T21:55:42.959Z,17.70
2018-06-04T21:58:53.134Z,17.70
2018-06-04T22:02:04.397Z,17.60
2018-06-04T22:05:14.361Z,17.60
2018-06-04T22:08:24.925Z,17.80
2018-06-04T22:11:35.685Z,17.80
2018-06-04T22:14:45.585Z,17.70
2018-06-04T22:17:56.330Z,17.70
2018-06-04T22:21:07.875Z,17.70
2018-06-04T22:24:18.037Z,17.70
2018-06-04T22:27:27.944Z,17.60
2018-06-04T22:30:37.953Z,17.60
2018-06-04T22:33:48.159Z,17.50
2018-06-04T22:36:58.337Z,17.60
2018-06-04T22:40:09.433Z,17.60
2018-06-04T22:43:20.205Z,17.40
2018-06-04T22:46:30.590Z,17.40
2018-06-04T22:49:40.546Z,17.40
2018-06-04T22:52:51.145Z,17.50
2018-06-04T22:56:01.114Z,17.40
2018-06-04T22:59:11.129Z,17.40
2018-06-04T23:02:21.192Z,17.30
2018-06-04T23:05:31.495Z,17.20
2018-06-04T23:08:41.737Z,17.10
2018-06-04T23:11:51.725Z,17.00
2018-06-04T23:15:01.877Z,16.90
2018-06-04T23:18:12.242Z,16.70
2018-06-04T23:21:22.335Z,16.70
2018-06-04T23:24:32.947Z,16.80
2018-06-04T23:27:43.763Z,16.80
2018-06-04T23:30:53.798Z,16.80
2018-06-04T23:34:04.281Z,16.70
2018-06-04T23:37:14.430Z,16.70
2018-06-04T23:40:24.714Z,16.60
2018-06-04T23:43:34.638Z,16.40
2018-06-04T23:46:44.898Z,16.30
2018-06-04T23:49:55.177Z,16.30
2018-06-04T23:53:05.425Z,16.30
2018-06-04T23:56:15.594Z,16.30
2018-06-04T23:59:26.341Z,16.30
